sensor_id;sensor_type;location;lat;lon;timestamp;temperature;humidity
39983;DHT22;25670;44.782;10.356;2023-05-29T00:01:25;17.60;99.90
39983;DHT22;25670;44.782;10.356;2023-05-29T00:03:52;17.60;99.90
39983;DHT22;25670;44.782;10.356;2023-05-29T00:06:21;17.60;99.90
39983;DHT22;25670;44.782;10.356;2023-05-29T00:08:47;17.50;99.90
39983;DHT22;25670;44.782;10.356;2023-05-29T00:11:14;17.50;99.90
39983;DHT22;25670;44.782;10.356;2023-05-29T00:13:40;17.60;99.90
39983;DHT22;25670;44.782;10.356;2023-05-29T00:16:07;17.60;99.90
39983;DHT22;25670;44.782;10.356;2023-05-29T00:18:35;17.50;99.90
39983;DHT22;25670;44.782;10.356;2023-05-29T00:21:02;17.50;99.90
39983;DHT22;25670;44.782;10.356;2023-05-29T00:23:28;17.40;99.90
39983;DHT22;25670;44.782;10.356;2023-05-29T00:25:54;17.40;99.90
39983;DHT22;25670;44.782;10.356;2023-05-29T00:28:20;17.50;99.90
39983;DHT22;25670;44.782;10.356;2023-05-29T00:30:46;17.50;99.90
39983;DHT22;25670;44.782;10.356;2023-05-29T00:33:13;17.40;99.90
39983;DHT22;25670;44.782;10.356;2023-05-29T00:35:39;17.50;99.90
39983;DHT22;25670;44.782;10.356;2023-05-29T00:38:05;17.40;99.90
39983;DHT22;25670;44.782;10.356;2023-05-29T00:40:32;17.20;99.90
39983;DHT22;25670;44.782;10.356;2023-05-29T00:42:58;17.20;99.90
39983;DHT22;25670;44.782;10.356;2023-05-29T00:45:24;17.10;99.90
39983;DHT22;25670;44.782;10.356;2023-05-29T00:47:52;17.00;99.90
39983;DHT22;25670;44.782;10.356;2023-05-29T00:50:21;17.00;99.90
39983;DHT22;25670;44.782;10.356;2023-05-29T00:52:50;16.90;99.90
39983;DHT22;25670;44.782;10.356;2023-05-29T00:55:17;16.90;99.90
39983;DHT22;25670;44.782;10.356;2023-05-29T00:57:43;16.90;99.90
39983;DHT22;25670;44.782;10.356;2023-05-29T01:00:11;16.90;99.90
39983;DHT22;25670;44.782;10.356;2023-05-29T01:02:42;16.80;99.90
39983;DHT22;25670;44.782;10.356;2023-05-29T01:05:11;16.80;99.90
39983;DHT22;25670;44.782;10.356;2023-05-29T01:07:38;16.80;99.90
39983;DHT22;25670;44.782;10.356;2023-05-29T01:10:05;16.70;99.90
39983;DHT22;25670;44.782;10.356;2023-05-29T01:12:54;16.60;99.90
39983;DHT22;25670;44.782;10.356;2023-05-29T01:26:47;16.30;99.90
39983;DHT22;25670;44.782;10.356;2023-05-29T01:29:17;16.30;99.90
39983;DHT22;25670;44.782;10.356;2023-05-29T01:31:46;16.30;99.90
39983;DHT22;25670;44.782;10.356;2023-05-29T01:34:14;16.30;99.90
39983;DHT22;25670;44.782;10.356;2023-05-29T01:36:43;16.30;99.90
39983;DHT22;25670;44.782;10.356;2023-05-29T01:39:10;16.20;99.90
39983;DHT22;25670;44.782;10.356;2023-05-29T01:41:36;16.20;99.90
39983;DHT22;25670;44.782;10.356;2023-05-29T01:44:07;16.20;99.90
39983;DHT22;25670;44.782;10.356;2023-05-29T01:46:36;16.10;99.90
39983;DHT22;25670;44.782;10.356;2023-05-29T01:49:04;16.10;99.90
39983;DHT22;25670;44.782;10.356;2023-05-29T01:51:30;16.00;99.90
39983;DHT22;25670;44.782;10.356;2023-05-29T01:53:58;15.90;99.90
39983;DHT22;25670;44.782;10.356;2023-05-29T01:56:27;15.80;99.90
39983;DHT22;25670;44.782;10.356;2023-05-29T01:58:57;15.70;99.90
39983;DHT22;25670;44.782;10.356;2023-05-29T02:01:24;15.70;99.90
39983;DHT22;25670;44.782;10.356;2023-05-29T02:03:51;15.60;99.90
39983;DHT22;25670;44.782;10.356;2023-05-29T02:06:17;15.50;99.90
39983;DHT22;25670;44.782;10.356;2023-05-29T02:08:44;15.50;99.90
39983;DHT22;25670;44.782;10.356;2023-05-29T02:11:10;15.50;99.90
39983;DHT22;25670;44.782;10.356;2023-05-29T02:13:37;15.40;99.90
39983;DHT22;25670;44.782;10.356;2023-05-29T02:16:03;15.40;99.90
39983;DHT22;25670;44.782;10.356;2023-05-29T02:18:30;15.40;99.90
39983;DHT22;25670;44.782;10.356;2023-05-29T02:20:57;15.40;99.90
39983;DHT22;25670;44.782;10.356;2023-05-29T02:23:23;15.30;99.90
39983;DHT22;25670;44.782;10.356;2023-05-29T02:25:51;15.30;99.90
39983;DHT22;25670;44.782;10.356;2023-05-29T02:28:17;15.30;99.90
39983;DHT22;25670;44.782;10.356;2023-05-29T02:30:43;15.40;99.90
39983;DHT22;25670;44.782;10.356;2023-05-29T02:33:09;15.50;99.90
39983;DHT22;25670;44.782;10.356;2023-05-29T02:35:36;15.50;99.90
39983;DHT22;25670;44.782;10.356;2023-05-29T02:38:04;15.60;99.90
39983;DHT22;25670;44.782;10.356;2023-05-29T02:40:30;15.60;99.90
39983;DHT22;25670;44.782;10.356;2023-05-29T02:42:57;15.60;99.90
39983;DHT22;25670;44.782;10.356;2023-05-29T02:45:24;15.70;99.90
39983;DHT22;25670;44.782;10.356;2023-05-29T02:47:50;15.70;99.90
39983;DHT22;25670;44.782;10.356;2023-05-29T02:50:16;15.80;99.90
39983;DHT22;25670;44.782;10.356;2023-05-29T02:52:42;15.80;99.90
39983;DHT22;25670;44.782;10.356;2023-05-29T02:57:35;15.60;99.90
39983;DHT22;25670;44.782;10.356;2023-05-29T03:00:02;15.80;99.90
39983;DHT22;25670;44.782;10.356;2023-05-29T03:02:32;15.70;99.90
39983;DHT22;25670;44.782;10.356;2023-05-29T03:04:58;15.80;99.90
39983;DHT22;25670;44.782;10.356;2023-05-29T03:07:25;15.70;99.90
39983;DHT22;25670;44.782;10.356;2023-05-29T03:09:51;15.70;99.90
39983;DHT22;25670;44.782;10.356;2023-05-29T03:12:18;15.70;99.90
39983;DHT22;25670;44.782;10.356;2023-05-29T03:17:12;15.70;99.90
39983;DHT22;25670;44.782;10.356;2023-05-29T03:19:39;15.60;99.90
39983;DHT22;25670;44.782;10.356;2023-05-29T03:22:05;15.60;99.90
39983;DHT22;25670;44.782;10.356;2023-05-29T03:24:34;15.50;99.90
39983;DHT22;25670;44.782;10.356;2023-05-29T03:27:01;15.40;99.90
39983;DHT22;25670;44.782;10.356;2023-05-29T03:29:31;15.40;99.90
39983;DHT22;25670;44.782;10.356;2023-05-29T03:31:58;15.40;99.90
39983;DHT22;25670;44.782;10.356;2023-05-29T03:34:29;15.50;99.90
39983;DHT22;25670;44.782;10.356;2023-05-29T03:36:57;15.60;99.90
39983;DHT22;25670;44.782;10.356;2023-05-29T03:39:25;15.60;99.90
39983;DHT22;25670;44.782;10.356;2023-05-29T03:41:52;15.60;99.90
39983;DHT22;25670;44.782;10.356;2023-05-29T03:44:18;15.60;99.90
39983;DHT22;25670;44.782;10.356;2023-05-29T03:46:44;15.60;99.90
39983;DHT22;25670;44.782;10.356;2023-05-29T03:49:11;15.60;99.90
39983;DHT22;25670;44.782;10.356;2023-05-29T03:51:38;15.50;99.90
39983;DHT22;25670;44.782;10.356;2023-05-29T03:54:05;15.50;99.90
39983;DHT22;25670;44.782;10.356;2023-05-29T03:56:32;15.40;99.90
39983;DHT22;25670;44.782;10.356;2023-05-29T03:58:59;15.50;99.90
39983;DHT22;25670;44.782;10.356;2023-05-29T04:01:25;15.40;99.90
39983;DHT22;25670;44.782;10.356;2023-05-29T04:03:54;15.40;99.90
39983;DHT22;25670;44.782;10.356;2023-05-29T04:06:20;15.30;99.90
39983;DHT22;25670;44.782;10.356;2023-05-29T04:16:11;15.20;99.90
39983;DHT22;25670;44.782;10.356;2023-05-29T04:21:04;15.40;99.90
39983;DHT22;25670;44.782;10.356;2023-05-29T04:23:31;15.40;99.90
39983;DHT22;25670;44.782;10.356;2023-05-29T04:25:58;15.50;99.90
39983;DHT22;25670;44.782;10.356;2023-05-29T04:28:27;15.50;99.90
39983;DHT22;25670;44.782;10.356;2023-05-29T04:30:54;15.60;99.90
39983;DHT22;25670;44.782;10.356;2023-05-29T04:33:22;15.70;99.90
39983;DHT22;25670;44.782;10.356;2023-05-29T04:35:52;15.80;99.90
39983;DHT22;25670;44.782;10.356;2023-05-29T04:38:19;15.90;99.90
39983;DHT22;25670;44.782;10.356;2023-05-29T04:43:19;16.00;99.90
39983;DHT22;25670;44.782;10.356;2023-05-29T04:46:15;16.00;99.90
39983;DHT22;25670;44.782;10.356;2023-05-29T04:48:41;16.10;99.90
39983;DHT22;25670;44.782;10.356;2023-05-29T04:51:08;16.30;99.90
39983;DHT22;25670;44.782;10.356;2023-05-29T04:53:40;16.30;99.90
39983;DHT22;25670;44.782;10.356;2023-05-29T04:56:08;16.40;99.90
39983;DHT22;25670;44.782;10.356;2023-05-29T04:58:35;16.50;99.90
39983;DHT22;25670;44.782;10.356;2023-05-29T05:01:04;16.60;99.90
39983;DHT22;25670;44.782;10.356;2023-05-29T05:03:32;16.60;99.90
39983;DHT22;25670;44.782;10.356;2023-05-29T05:06:00;16.70;99.90
39983;DHT22;25670;44.782;10.356;2023-05-29T05:08:29;16.80;99.90
39983;DHT22;25670;44.782;10.356;2023-05-29T05:10:57;15.40;99.90
39983;DHT22;25670;44.782;10.356;2023-05-29T05:13:24;16.50;99.90
39983;DHT22;25670;44.782;10.356;2023-05-29T05:15:52;16.60;99.90
39983;DHT22;25670;44.782;10.356;2023-05-29T05:18:19;16.80;99.90
39983;DHT22;25670;44.782;10.356;2023-05-29T05:20:52;16.90;99.90
39983;DHT22;25670;44.782;10.356;2023-05-29T05:23:18;17.10;99.90
39983;DHT22;25670;44.782;10.356;2023-05-29T05:25:45;17.20;99.90
39983;DHT22;25670;44.782;10.356;2023-05-29T05:28:11;17.30;99.90
39983;DHT22;25670;44.782;10.356;2023-05-29T05:33:04;17.50;99.90
39983;DHT22;25670;44.782;10.356;2023-05-29T05:37:57;17.40;99.90
39983;DHT22;25670;44.782;10.356;2023-05-29T05:40:25;17.40;99.90
39983;DHT22;25670;44.782;10.356;2023-05-29T05:42:58;17.40;99.90
39983;DHT22;25670;44.782;10.356;2023-05-29T05:45:43;17.30;99.90
39983;DHT22;25670;44.782;10.356;2023-05-29T05:50:36;17.40;99.90
39983;DHT22;25670;44.782;10.356;2023-05-29T05:53:03;17.40;99.90
39983;DHT22;25670;44.782;10.356;2023-05-29T05:55:29;17.30;99.90
39983;DHT22;25670;44.782;10.356;2023-05-29T05:57:56;17.60;99.90
39983;DHT22;25670;44.782;10.356;2023-05-29T06:00:23;17.50;99.90
39983;DHT22;25670;44.782;10.356;2023-05-29T06:02:54;17.70;99.90
39983;DHT22;25670;44.782;10.356;2023-05-29T06:05:34;17.60;99.90
39983;DHT22;25670;44.782;10.356;2023-05-29T06:08:03;17.60;99.90
39983;DHT22;25670;44.782;10.356;2023-05-29T06:10:29;17.60;99.90
39983;DHT22;25670;44.782;10.356;2023-05-29T06:12:57;17.70;99.90
39983;DHT22;25670;44.782;10.356;2023-05-29T06:15:29;17.80;99.90
39983;DHT22;25670;44.782;10.356;2023-05-29T06:17:55;17.90;99.90
39983;DHT22;25670;44.782;10.356;2023-05-29T06:20:22;18.00;99.90
39983;DHT22;25670;44.782;10.356;2023-05-29T06:22:49;18.10;99.90
39983;DHT22;25670;44.782;10.356;2023-05-29T06:25:18;18.20;99.90
39983;DHT22;25670;44.782;10.356;2023-05-29T06:30:13;18.40;99.90
39983;DHT22;25670;44.782;10.356;2023-05-29T06:32:39;18.50;99.90
39983;DHT22;25670;44.782;10.356;2023-05-29T06:35:08;18.70;99.90
39983;DHT22;25670;44.782;10.356;2023-05-29T06:37:34;18.90;99.90
39983;DHT22;25670;44.782;10.356;2023-05-29T06:40:00;19.10;99.90
39983;DHT22;25670;44.782;10.356;2023-05-29T06:42:27;19.20;99.90
39983;DHT22;25670;44.782;10.356;2023-05-29T06:45:01;19.20;99.90
39983;DHT22;25670;44.782;10.356;2023-05-29T06:47:27;19.20;99.90
39983;DHT22;25670;44.782;10.356;2023-05-29T06:49:54;19.30;99.90
39983;DHT22;25670;44.782;10.356;2023-05-29T06:52:20;19.50;99.90
39983;DHT22;25670;44.782;10.356;2023-05-29T06:55:16;19.50;99.90
39983;DHT22;25670;44.782;10.356;2023-05-29T06:57:42;20.00;99.90
39983;DHT22;25670;44.782;10.356;2023-05-29T07:00:09;20.40;99.90
39983;DHT22;25670;44.782;10.356;2023-05-29T07:02:41;20.50;99.90
39983;DHT22;25670;44.782;10.356;2023-05-29T07:07:36;20.70;99.90
39983;DHT22;25670;44.782;10.356;2023-05-29T07:10:02;20.90;99.90
39983;DHT22;25670;44.782;10.356;2023-05-29T07:12:29;21.10;99.90
39983;DHT22;25670;44.782;10.356;2023-05-29T07:14:56;21.10;99.90
39983;DHT22;25670;44.782;10.356;2023-05-29T07:20:00;21.30;99.90
39983;DHT22;25670;44.782;10.356;2023-05-29T07:22:26;21.20;99.90
39983;DHT22;25670;44.782;10.356;2023-05-29T07:24:52;21.30;99.90
39983;DHT22;25670;44.782;10.356;2023-05-29T07:27:19;21.50;99.90
39983;DHT22;25670;44.782;10.356;2023-05-29T07:29:45;21.60;99.90
39983;DHT22;25670;44.782;10.356;2023-05-29T07:32:11;21.70;99.90
39983;DHT22;25670;44.782;10.356;2023-05-29T07:34:37;21.50;99.90
39983;DHT22;25670;44.782;10.356;2023-05-29T07:37:05;22.10;99.90
39983;DHT22;25670;44.782;10.356;2023-05-29T07:39:35;22.20;99.90
39983;DHT22;25670;44.782;10.356;2023-05-29T07:42:08;22.10;99.90
39983;DHT22;25670;44.782;10.356;2023-05-29T07:44:37;21.90;99.90
39983;DHT22;25670;44.782;10.356;2023-05-29T07:47:04;21.90;99.90
39983;DHT22;25670;44.782;10.356;2023-05-29T07:49:36;21.90;99.90
39983;DHT22;25670;44.782;10.356;2023-05-29T07:52:03;22.10;99.90
39983;DHT22;25670;44.782;10.356;2023-05-29T07:54:34;22.20;99.90
39983;DHT22;25670;44.782;10.356;2023-05-29T07:57:02;22.40;99.90
39983;DHT22;25670;44.782;10.356;2023-05-29T07:59:37;22.50;99.90
39983;DHT22;25670;44.782;10.356;2023-05-29T08:02:05;22.20;99.90
39983;DHT22;25670;44.782;10.356;2023-05-29T08:04:57;23.50;99.90
39983;DHT22;25670;44.782;10.356;2023-05-29T08:07:24;22.30;99.90
39983;DHT22;25670;44.782;10.356;2023-05-29T08:12:21;22.30;99.90
39983;DHT22;25670;44.782;10.356;2023-05-29T08:14:49;22.30;99.90
39983;DHT22;25670;44.782;10.356;2023-05-29T08:17:15;22.30;99.90
39983;DHT22;25670;44.782;10.356;2023-05-29T08:19:41;22.30;99.90
39983;DHT22;25670;44.782;10.356;2023-05-29T08:22:11;22.20;99.90
39983;DHT22;25670;44.782;10.356;2023-05-29T08:27:04;22.40;99.90
39983;DHT22;25670;44.782;10.356;2023-05-29T08:29:30;22.70;99.90
39983;DHT22;25670;44.782;10.356;2023-05-29T08:31:57;22.80;99.90
39983;DHT22;25670;44.782;10.356;2023-05-29T08:34:23;22.90;99.90
39983;DHT22;25670;44.782;10.356;2023-05-29T08:36:49;22.80;99.90
39983;DHT22;25670;44.782;10.356;2023-05-29T08:39:17;22.80;99.90
39983;DHT22;25670;44.782;10.356;2023-05-29T08:41:55;22.90;99.90
39983;DHT22;25670;44.782;10.356;2023-05-29T08:44:24;23.00;99.90
39983;DHT22;25670;44.782;10.356;2023-05-29T08:46:55;23.10;99.90
39983;DHT22;25670;44.782;10.356;2023-05-29T08:49:22;23.10;99.90
39983;DHT22;25670;44.782;10.356;2023-05-29T08:52:02;23.00;99.90
39983;DHT22;25670;44.782;10.356;2023-05-29T08:54:31;22.80;99.90
39983;DHT22;25670;44.782;10.356;2023-05-29T08:56:57;22.90;99.90
39983;DHT22;25670;44.782;10.356;2023-05-29T08:59:25;23.10;99.90
39983;DHT22;25670;44.782;10.356;2023-05-29T09:01:52;23.20;99.90
39983;DHT22;25670;44.782;10.356;2023-05-29T09:04:18;23.30;99.90
39983;DHT22;25670;44.782;10.356;2023-05-29T09:06:44;23.30;99.90
39983;DHT22;25670;44.782;10.356;2023-05-29T09:09:11;23.50;99.90
39983;DHT22;25670;44.782;10.356;2023-05-29T09:11:37;23.80;99.90
39983;DHT22;25670;44.782;10.356;2023-05-29T09:14:03;24.00;99.90
39983;DHT22;25670;44.782;10.356;2023-05-29T09:16:29;24.00;99.90
39983;DHT22;25670;44.782;10.356;2023-05-29T09:19:06;24.10;99.90
39983;DHT22;25670;44.782;10.356;2023-05-29T09:21:35;24.20;99.90
39983;DHT22;25670;44.782;10.356;2023-05-29T09:24:05;24.30;99.90
39983;DHT22;25670;44.782;10.356;2023-05-29T09:26:31;24.40;99.90
39983;DHT22;25670;44.782;10.356;2023-05-29T09:28:58;24.50;99.90
39983;DHT22;25670;44.782;10.356;2023-05-29T09:31:25;24.50;99.90
39983;DHT22;25670;44.782;10.356;2023-05-29T09:33:51;24.70;99.90
39983;DHT22;25670;44.782;10.356;2023-05-29T09:36:21;24.80;99.90
39983;DHT22;25670;44.782;10.356;2023-05-29T09:38:51;25.00;99.90
39983;DHT22;25670;44.782;10.356;2023-05-29T09:41:21;25.00;99.90
39983;DHT22;25670;44.782;10.356;2023-05-29T09:43:50;25.10;99.90
39983;DHT22;25670;44.782;10.356;2023-05-29T09:46:17;25.10;99.90
39983;DHT22;25670;44.782;10.356;2023-05-29T09:48:46;25.20;99.90
39983;DHT22;25670;44.782;10.356;2023-05-29T09:51:22;25.30;99.90
39983;DHT22;25670;44.782;10.356;2023-05-29T09:53:50;25.30;99.90
39983;DHT22;25670;44.782;10.356;2023-05-29T09:56:17;25.10;99.90
39983;DHT22;25670;44.782;10.356;2023-05-29T09:58:44;25.10;99.90
39983;DHT22;25670;44.782;10.356;2023-05-29T10:01:13;25.10;99.90
39983;DHT22;25670;44.782;10.356;2023-05-29T10:03:42;25.00;99.90
39983;DHT22;25670;44.782;10.356;2023-05-29T10:06:11;24.80;99.90
39983;DHT22;25670;44.782;10.356;2023-05-29T10:08:45;25.10;99.90
39983;DHT22;25670;44.782;10.356;2023-05-29T10:11:20;25.00;99.90
39983;DHT22;25670;44.782;10.356;2023-05-29T10:13:52;25.10;99.90
39983;DHT22;25670;44.782;10.356;2023-05-29T10:16:21;25.30;99.90
39983;DHT22;25670;44.782;10.356;2023-05-29T10:18:55;25.50;99.90
39983;DHT22;25670;44.782;10.356;2023-05-29T10:21:24;25.60;99.90
39983;DHT22;25670;44.782;10.356;2023-05-29T10:23:51;25.70;99.90
39983;DHT22;25670;44.782;10.356;2023-05-29T10:26:27;25.70;99.90
39983;DHT22;25670;44.782;10.356;2023-05-29T10:35:10;25.90;99.90
39983;DHT22;25670;44.782;10.356;2023-05-29T10:40:13;26.30;99.90
39983;DHT22;25670;44.782;10.356;2023-05-29T10:45:48;26.70;99.90
39983;DHT22;25670;44.782;10.356;2023-05-29T10:50:36;26.70;99.90
39983;DHT22;25670;44.782;10.356;2023-05-29T10:53:02;26.80;99.90
39983;DHT22;25670;44.782;10.356;2023-05-29T10:55:35;26.60;99.90
39983;DHT22;25670;44.782;10.356;2023-05-29T10:58:09;26.80;99.90
39983;DHT22;25670;44.782;10.356;2023-05-29T11:00:41;27.00;99.90
39983;DHT22;25670;44.782;10.356;2023-05-29T11:03:09;26.90;99.90
39983;DHT22;25670;44.782;10.356;2023-05-29T11:06:02;27.00;99.90
39983;DHT22;25670;44.782;10.356;2023-05-29T11:08:45;27.10;99.90
39983;DHT22;25670;44.782;10.356;2023-05-29T11:11:13;27.40;99.90
39983;DHT22;25670;44.782;10.356;2023-05-29T11:13:40;27.50;99.90
39983;DHT22;25670;44.782;10.356;2023-05-29T11:18:57;27.50;99.90
39983;DHT22;25670;44.782;10.356;2023-05-29T11:23:58;27.30;99.90
39983;DHT22;25670;44.782;10.356;2023-05-29T11:26:27;27.60;99.90
39983;DHT22;25670;44.782;10.356;2023-05-29T11:28:57;27.90;99.90
39983;DHT22;25670;44.782;10.356;2023-05-29T11:31:24;28.10;99.90
39983;DHT22;25670;44.782;10.356;2023-05-29T11:33:52;28.40;99.90
39983;DHT22;25670;44.782;10.356;2023-05-29T11:36:21;28.60;99.90
39983;DHT22;25670;44.782;10.356;2023-05-29T11:38:48;28.80;99.90
39983;DHT22;25670;44.782;10.356;2023-05-29T11:41:16;29.30;99.90
39983;DHT22;25670;44.782;10.356;2023-05-29T11:43:43;29.30;99.90
39983;DHT22;25670;44.782;10.356;2023-05-29T11:46:18;29.00;99.90
39983;DHT22;25670;44.782;10.356;2023-05-29T11:48:46;28.60;99.90
39983;DHT22;25670;44.782;10.356;2023-05-29T11:51:13;28.50;99.90
39983;DHT22;25670;44.782;10.356;2023-05-29T11:53:41;28.70;99.90
39983;DHT22;25670;44.782;10.356;2023-05-29T11:56:09;28.80;99.90
39983;DHT22;25670;44.782;10.356;2023-05-29T11:58:37;28.80;99.90
39983;DHT22;25670;44.782;10.356;2023-05-29T12:01:05;29.00;99.90
39983;DHT22;25670;44.782;10.356;2023-05-29T12:03:41;28.90;99.90
39983;DHT22;25670;44.782;10.356;2023-05-29T12:06:11;28.90;99.90
39983;DHT22;25670;44.782;10.356;2023-05-29T12:08:38;29.10;99.90
39983;DHT22;25670;44.782;10.356;2023-05-29T12:11:04;28.90;99.90
39983;DHT22;25670;44.782;10.356;2023-05-29T12:13:31;29.20;99.90
39983;DHT22;25670;44.782;10.356;2023-05-29T12:15:59;29.40;99.90
39983;DHT22;25670;44.782;10.356;2023-05-29T12:18:28;29.30;99.90
39983;DHT22;25670;44.782;10.356;2023-05-29T12:21:01;29.50;99.90
39983;DHT22;25670;44.782;10.356;2023-05-29T12:23:28;30.10;99.90
39983;DHT22;25670;44.782;10.356;2023-05-29T12:25:56;30.00;99.90
39983;DHT22;25670;44.782;10.356;2023-05-29T12:28:22;29.80;99.90
39983;DHT22;25670;44.782;10.356;2023-05-29T12:30:49;30.30;99.90
39983;DHT22;25670;44.782;10.356;2023-05-29T12:33:28;31.30;99.90
39983;DHT22;25670;44.782;10.356;2023-05-29T12:36:05;31.20;98.70
39983;DHT22;25670;44.782;10.356;2023-05-29T12:38:52;31.10;99.40
39983;DHT22;25670;44.782;10.356;2023-05-29T12:41:25;30.50;98.50
39983;DHT22;25670;44.782;10.356;2023-05-29T12:43:54;30.70;98.50
39983;DHT22;25670;44.782;10.356;2023-05-29T12:46:21;30.60;98.60
39983;DHT22;25670;44.782;10.356;2023-05-29T12:48:47;30.10;98.60
39983;DHT22;25670;44.782;10.356;2023-05-29T12:51:22;31.10;98.80
39983;DHT22;25670;44.782;10.356;2023-05-29T12:53:48;31.50;98.00
39983;DHT22;25670;44.782;10.356;2023-05-29T12:56:15;31.50;97.30
39983;DHT22;25670;44.782;10.356;2023-05-29T12:58:41;32.40;96.80
39983;DHT22;25670;44.782;10.356;2023-05-29T13:01:12;32.90;95.80
39983;DHT22;25670;44.782;10.356;2023-05-29T13:03:41;33.50;94.70
39983;DHT22;25670;44.782;10.356;2023-05-29T13:06:07;34.10;92.90
39983;DHT22;25670;44.782;10.356;2023-05-29T13:08:34;33.80;93.00
39983;DHT22;25670;44.782;10.356;2023-05-29T13:11:00;33.70;92.00
39983;DHT22;25670;44.782;10.356;2023-05-29T13:13:26;34.10;92.30
39983;DHT22;25670;44.782;10.356;2023-05-29T13:15:52;34.00;91.40
39983;DHT22;25670;44.782;10.356;2023-05-29T13:18:19;33.80;90.50
39983;DHT22;25670;44.782;10.356;2023-05-29T13:20:45;34.90;90.50
39983;DHT22;25670;44.782;10.356;2023-05-29T13:23:11;35.90;86.90
39983;DHT22;25670;44.782;10.356;2023-05-29T13:25:37;36.40;85.70
39983;DHT22;25670;44.782;10.356;2023-05-29T13:28:04;37.00;84.30
39983;DHT22;25670;44.782;10.356;2023-05-29T13:30:30;36.80;80.80
39983;DHT22;25670;44.782;10.356;2023-05-29T13:32:56;35.80;81.10
39983;DHT22;25670;44.782;10.356;2023-05-29T13:35:23;34.90;82.10
39983;DHT22;25670;44.782;10.356;2023-05-29T13:37:50;34.40;80.80
39983;DHT22;25670;44.782;10.356;2023-05-29T13:40:16;33.60;81.30
39983;DHT22;25670;44.782;10.356;2023-05-29T13:42:42;32.00;84.50
39983;DHT22;25670;44.782;10.356;2023-05-29T13:45:09;30.90;86.60
39983;DHT22;25670;44.782;10.356;2023-05-29T13:47:35;30.30;86.60
39983;DHT22;25670;44.782;10.356;2023-05-29T13:50:02;29.70;89.00
39983;DHT22;25670;44.782;10.356;2023-05-29T13:52:28;30.00;89.10
39983;DHT22;25670;44.782;10.356;2023-05-29T13:54:54;31.70;88.70
39983;DHT22;25670;44.782;10.356;2023-05-29T13:57:21;34.10;81.70
39983;DHT22;25670;44.782;10.356;2023-05-29T13:59:47;34.40;79.50
39983;DHT22;25670;44.782;10.356;2023-05-29T14:02:13;34.10;81.10
39983;DHT22;25670;44.782;10.356;2023-05-29T14:04:39;34.30;81.30
39983;DHT22;25670;44.782;10.356;2023-05-29T14:07:06;33.90;80.40
39983;DHT22;25670;44.782;10.356;2023-05-29T14:09:32;33.20;80.80
39983;DHT22;25670;44.782;10.356;2023-05-29T14:11:59;33.50;80.90
39983;DHT22;25670;44.782;10.356;2023-05-29T14:14:26;34.40;77.80
39983;DHT22;25670;44.782;10.356;2023-05-29T14:16:53;35.50;76.40
39983;DHT22;25670;44.782;10.356;2023-05-29T14:19:21;36.40;76.50
39983;DHT22;25670;44.782;10.356;2023-05-29T14:21:47;36.80;76.50
39983;DHT22;25670;44.782;10.356;2023-05-29T14:24:14;37.00;75.30
39983;DHT22;25670;44.782;10.356;2023-05-29T14:26:41;36.80;74.30
39983;DHT22;25670;44.782;10.356;2023-05-29T14:29:11;36.40;74.10
39983;DHT22;25670;44.782;10.356;2023-05-29T14:31:39;36.00;72.90
39983;DHT22;25670;44.782;10.356;2023-05-29T14:34:06;36.00;72.90
39983;DHT22;25670;44.782;10.356;2023-05-29T14:36:32;36.70;73.10
39983;DHT22;25670;44.782;10.356;2023-05-29T14:38:58;37.00;70.70
39983;DHT22;25670;44.782;10.356;2023-05-29T14:41:24;37.70;71.30
39983;DHT22;25670;44.782;10.356;2023-05-29T14:43:51;39.10;70.00
39983;DHT22;25670;44.782;10.356;2023-05-29T14:46:17;38.70;67.30
39983;DHT22;25670;44.782;10.356;2023-05-29T14:48:44;40.00;67.10
39983;DHT22;25670;44.782;10.356;2023-05-29T14:51:13;39.10;65.90
39983;DHT22;25670;44.782;10.356;2023-05-29T14:53:39;37.60;66.20
39983;DHT22;25670;44.782;10.356;2023-05-29T14:56:05;36.00;67.30
39983;DHT22;25670;44.782;10.356;2023-05-29T14:58:31;34.40;69.60
39983;DHT22;25670;44.782;10.356;2023-05-29T15:00:58;33.30;71.40
39983;DHT22;25670;44.782;10.356;2023-05-29T15:03:24;33.30;72.40
39983;DHT22;25670;44.782;10.356;2023-05-29T15:05:53;33.90;71.80
39983;DHT22;25670;44.782;10.356;2023-05-29T15:08:20;33.90;70.50
39983;DHT22;25670;44.782;10.356;2023-05-29T15:10:46;34.00;71.40
39983;DHT22;25670;44.782;10.356;2023-05-29T15:13:12;35.20;70.00
39983;DHT22;25670;44.782;10.356;2023-05-29T15:15:39;36.50;68.60
39983;DHT22;25670;44.782;10.356;2023-05-29T15:18:05;37.80;67.10
39983;DHT22;25670;44.782;10.356;2023-05-29T15:20:31;37.40;66.40
39983;DHT22;25670;44.782;10.356;2023-05-29T15:22:57;36.40;67.30
39983;DHT22;25670;44.782;10.356;2023-05-29T15:25:24;35.10;69.90
39983;DHT22;25670;44.782;10.356;2023-05-29T15:27:50;35.10;70.20
39983;DHT22;25670;44.782;10.356;2023-05-29T15:30:18;36.00;68.70
39983;DHT22;25670;44.782;10.356;2023-05-29T15:32:45;35.20;68.80
39983;DHT22;25670;44.782;10.356;2023-05-29T15:35:16;35.60;68.10
39983;DHT22;25670;44.782;10.356;2023-05-29T15:37:43;35.80;68.10
39983;DHT22;25670;44.782;10.356;2023-05-29T15:40:09;35.90;67.10
39983;DHT22;25670;44.782;10.356;2023-05-29T15:42:36;36.40;66.90
39983;DHT22;25670;44.782;10.356;2023-05-29T15:45:03;37.60;65.30
39983;DHT22;25670;44.782;10.356;2023-05-29T15:47:30;38.40;64.60
39983;DHT22;25670;44.782;10.356;2023-05-29T15:49:57;38.90;63.10
39983;DHT22;25670;44.782;10.356;2023-05-29T15:52:25;39.10;62.50
39983;DHT22;25670;44.782;10.356;2023-05-29T15:54:51;38.80;62.90
39983;DHT22;25670;44.782;10.356;2023-05-29T15:57:17;37.70;64.20
39983;DHT22;25670;44.782;10.356;2023-05-29T15:59:44;37.60;64.60
39983;DHT22;25670;44.782;10.356;2023-05-29T16:02:10;36.10;64.10
39983;DHT22;25670;44.782;10.356;2023-05-29T16:04:37;36.10;65.90
39983;DHT22;25670;44.782;10.356;2023-05-29T16:07:03;36.70;64.40
39983;DHT22;25670;44.782;10.356;2023-05-29T16:09:29;36.90;63.50
39983;DHT22;25670;44.782;10.356;2023-05-29T16:11:56;37.10;63.90
39983;DHT22;25670;44.782;10.356;2023-05-29T16:14:22;37.00;64.10
39983;DHT22;25670;44.782;10.356;2023-05-29T16:16:48;36.80;62.10
39983;DHT22;25670;44.782;10.356;2023-05-29T16:19:14;37.60;61.60
39983;DHT22;25670;44.782;10.356;2023-05-29T16:21:41;37.90;62.50
39983;DHT22;25670;44.782;10.356;2023-05-29T16:24:07;37.70;61.20
39983;DHT22;25670;44.782;10.356;2023-05-29T16:26:33;37.10;59.80
39983;DHT22;25670;44.782;10.356;2023-05-29T16:29:01;36.80;60.50